Time;durP1;ratioP1;P1;durP2;ratioP2;P2;SDS_P1;SDS_P2;PMS_P1;PMS_P2;Temp;Humidity;BMP_temperature;BMP_pressure;BME280_temperature;BME280_humidity;BME280_pressure;Samples;Min_cycle;Max_cycle;Signal;HPM_P1;HPM_P2
2022/06/09 00:00:15;;;;;;;2.60;0.55;;;17.40;65.70;;;;;;5054284;28;20394;-62
2022/06/09 00:02:44;;;;;;;0.57;0.57;;;17.40;65.80;;;;;;5053887;28;20029;-62
2022/06/09 00:05:12;;;;;;;0.70;0.47;;;17.40;65.90;;;;;;5055013;28;20033;-62
2022/06/09 00:07:39;;;;;;;0.70;0.60;;;17.40;65.70;;;;;;5045402;28;20020;-62
2022/06/09 00:10:10;;;;;;;0.55;0.47;;;17.40;65.60;;;;;;5038001;28;20021;-62
2022/06/09 00:12:36;;;;;;;0.50;0.50;;;17.40;65.70;;;;;;5044009;28;20093;-62
2022/06/09 00:15:04;;;;;;;1.20;0.60;;;17.30;65.50;;;;;;5042938;28;20111;-62
2022/06/09 00:17:30;;;;;;;1.00;0.70;;;17.30;65.70;;;;;;5022661;28;20033;-62
2022/06/09 00:19:55;;;;;;;4.03;0.50;;;17.30;65.70;;;;;;5038016;28;20127;-62
2022/06/09 00:22:21;;;;;;;0.85;0.60;;;17.30;65.70;;;;;;5042816;28;20089;-62
2022/06/09 00:24:47;;;;;;;2.00;0.50;;;17.30;65.70;;;;;;5041251;28;20063;-62
2022/06/09 00:27:12;;;;;;;1.55;0.55;;;17.20;65.60;;;;;;5041868;28;20037;-63
2022/06/09 00:29:38;;;;;;;1.02;0.60;;;17.20;65.60;;;;;;5043776;28;20590;-62
2022/06/09 00:32:04;;;;;;;0.80;0.60;;;17.20;65.60;;;;;;5039323;28;20430;-63
2022/06/09 00:34:30;;;;;;;0.50;0.50;;;17.20;65.80;;;;;;5042052;28;20077;-62
2022/06/09 00:36:55;;;;;;;1.95;0.60;;;17.20;65.80;;;;;;5050785;28;20020;-62
2022/06/09 00:39:21;;;;;;;0.63;0.50;;;17.20;65.80;;;;;;5040980;28;20030;-61
2022/06/09 00:41:46;;;;;;;2.97;0.60;;;17.10;65.80;;;;;;5038448;28;20022;-62
2022/06/09 00:44:18;;;;;;;0.85;0.60;;;17.10;65.90;;;;;;5042374;28;20059;-63
2022/06/09 00:46:46;;;;;;;0.50;0.50;;;17.10;66.20;;;;;;5050010;28;20049;-63
2022/06/09 00:49:21;;;;;;;0.50;0.50;;;17.10;66.20;;;;;;5040203;28;20086;-62
2022/06/09 00:51:54;;;;;;;2.13;0.60;;;17.10;66.60;;;;;;5038607;28;20033;-62
2022/06/09 00:54:33;;;;;;;0.50;0.50;;;17.10;66.50;;;;;;5044395;28;20318;-62
2022/06/09 00:57:08;;;;;;;2.00;0.60;;;17.10;67.30;;;;;;5041665;28;20430;-62
2022/06/09 00:59:35;;;;;;;2.95;0.57;;;17.10;67.20;;;;;;5042138;28;20025;-62
2022/06/09 01:02:05;;;;;;;1.55;0.70;;;17.10;66.80;;;;;;5040043;28;20029;-62
2022/06/09 01:04:32;;;;;;;1.25;0.60;;;17.10;66.90;;;;;;5043629;28;20033;-62
2022/06/09 01:07:06;;;;;;;0.57;0.40;;;17.10;66.90;;;;;;5039916;28;20115;-62
2022/06/09 01:09:32;;;;;;;0.50;0.50;;;17.10;67.00;;;;;;5039208;28;20025;-62
2022/06/09 01:11:58;;;;;;;1.27;0.50;;;17.10;66.80;;;;;;5040754;28;20065;-62
2022/06/09 01:14:28;;;;;;;0.50;0.50;;;17.10;66.90;;;;;;5040046;28;20092;-62
2022/06/09 01:17:15;;;;;;;1.27;0.60;;;17.10;67.30;;;;;;5047272;28;20025;-62
2022/06/09 01:20:06;;;;;;;0.50;0.50;;;17.00;67.80;;;;;;5041545;28;20477;-62
2022/06/09 01:22:54;;;;;;;0.50;0.50;;;17.10;67.70;;;;;;5044175;28;20040;-62
2022/06/09 01:25:42;;;;;;;1.52;0.63;;;17.00;67.10;;;;;;5045459;28;20045;-62
2022/06/09 01:28:19;;;;;;;0.60;0.57;;;17.10;67.50;;;;;;5041281;28;20065;-62
2022/06/09 01:30:59;;;;;;;0.55;0.55;;;17.00;66.90;;;;;;5025234;28;20033;-62
2022/06/09 01:33:43;;;;;;;2.53;0.77;;;17.00;67.60;;;;;;5022015;28;20033;-62
2022/06/09 01:36:19;;;;;;;1.02;0.63;;;17.00;67.40;;;;;;5038391;28;20090;-62
2022/06/09 01:38:48;;;;;;;0.70;0.70;;;17.00;67.10;;;;;;5022167;28;20083;-62
2022/06/09 01:41:15;;;;;;;1.20;0.80;;;17.00;66.60;;;;;;5038807;28;20028;-62
2022/06/09 01:43:43;;;;;;;1.35;0.75;;;17.00;66.80;;;;;;5038275;28;20021;-63
2022/06/09 01:46:16;;;;;;;0.93;0.70;;;17.00;66.90;;;;;;5039879;28;20310;-62
2022/06/09 01:48:42;;;;;;;2.13;0.70;;;17.00;67.20;;;;;;5042943;28;20068;-62
2022/06/09 01:51:12;;;;;;;2.83;0.77;;;17.00;66.80;;;;;;5045776;28;20036;-61
2022/06/09 01:53:53;;;;;;;1.33;0.73;;;16.90;67.10;;;;;;5043122;28;20374;-62
2022/06/09 01:56:45;;;;;;;2.25;0.80;;;16.90;67.50;;;;;;5039368;28;20029;-62
2022/06/09 01:59:15;;;;;;;2.22;0.85;;;16.90;67.80;;;;;;5040971;28;20043;-62
2022/06/09 02:01:50;;;;;;;1.17;0.73;;;16.90;67.80;;;;;;5041862;28;20115;-63
2022/06/09 02:04:23;;;;;;;1.20;0.60;;;16.90;67.70;;;;;;5040733;28;20037;-62
2022/06/09 02:06:51;;;;;;;1.57;0.73;;;17.00;67.60;;;;;;5024838;28;20033;-62
2022/06/09 02:09:17;;;;;;;0.55;0.55;;;16.90;67.10;;;;;;5045101;28;20413;-62
2022/06/09 02:11:53;;;;;;;1.27;0.70;;;16.90;67.10;;;;;;5036924;28;20479;-62
2022/06/09 02:14:21;;;;;;;1.52;0.82;;;16.90;68.10;;;;;;5041387;28;20052;-63
2022/06/09 02:16:47;;;;;;;1.30;0.40;;;16.90;67.70;;;;;;5040464;28;20048;-61
2022/06/09 02:19:13;;;;;;;0.57;0.57;;;16.90;67.80;;;;;;5039606;28;20055;-62
2022/06/09 02:21:40;;;;;;;0.65;0.52;;;16.90;67.80;;;;;;5040941;28;20468;-62
2022/06/09 02:24:06;;;;;;;1.65;0.60;;;16.90;67.70;;;;;;5038759;28;20039;-62
2022/06/09 02:26:32;;;;;;;0.75;0.50;;;16.90;67.80;;;;;;5042722;28;20037;-61
2022/06/09 02:28:58;;;;;;;1.35;0.50;;;16.90;68.00;;;;;;5039925;28;20039;-63
2022/06/09 02:31:24;;;;;;;0.68;0.50;;;16.90;67.70;;;;;;5037827;28;20029;-63
2022/06/09 02:33:51;;;;;;;0.43;0.40;;;16.90;67.70;;;;;;5038259;28;20044;-62
2022/06/09 02:36:17;;;;;;;0.85;0.50;;;16.90;67.80;;;;;;5042360;28;20029;-62
2022/06/09 02:38:42;;;;;;;0.68;0.50;;;16.90;67.70;;;;;;5040763;28;20071;-62
2022/06/09 02:41:08;;;;;;;0.63;0.60;;;16.90;67.70;;;;;;5040702;28;20037;-62
2022/06/09 02:43:34;;;;;;;0.50;0.50;;;16.90;67.70;;;;;;5042754;28;20041;-62
2022/06/09 02:46:01;;;;;;;2.28;0.50;;;16.90;67.70;;;;;;5039314;28;20064;-61
2022/06/09 02:48:27;;;;;;;0.45;0.45;;;16.90;67.80;;;;;;5038914;28;20071;-62
2022/06/09 02:50:53;;;;;;;1.10;0.55;;;16.90;67.90;;;;;;5051077;28;20036;-62
2022/06/09 02:53:20;;;;;;;0.43;0.40;;;16.90;67.90;;;;;;5046087;28;20021;-62
2022/06/09 02:55:46;;;;;;;1.38;0.47;;;16.90;68.10;;;;;;5037673;28;20040;-62
2022/06/09 02:58:12;;;;;;;0.47;0.40;;;17.00;68.60;;;;;;5037390;28;20040;-62
2022/06/09 03:00:38;;;;;;;0.40;0.40;;;16.90;67.70;;;;;;5043112;28;20034;-62
2022/06/09 03:03:07;;;;;;;2.17;0.43;;;16.90;67.60;;;;;;5020803;28;20033;-62
2022/06/09 03:05:35;;;;;;;0.40;0.40;;;16.90;67.60;;;;;;5037968;28;20033;-61
2022/06/09 03:08:02;;;;;;;0.80;0.40;;;16.90;67.60;;;;;;5038842;28;20025;-61
2022/06/09 03:10:28;;;;;;;4.10;0.40;;;16.80;67.80;;;;;;5039297;28;20041;-61
2022/06/09 03:12:54;;;;;;;2.78;0.60;;;16.80;67.70;;;;;;5040196;28;20040;-62
2022/06/09 03:15:22;;;;;;;2.35;1.25;;;16.80;67.80;;;;;;5036779;28;20152;-61
2022/06/09 03:17:52;;;;;;;0.50;0.50;;;16.80;68.00;;;;;;5041343;28;20094;-62
2022/06/09 03:20:21;;;;;;;1.23;0.50;;;16.70;67.90;;;;;;5050623;28;20021;-62
2022/06/09 03:22:47;;;;;;;0.40;0.40;;;16.80;68.10;;;;;;5036171;28;20059;-62
2022/06/09 03:25:13;;;;;;;0.50;0.50;;;16.80;67.80;;;;;;5054338;28;20115;-63
2022/06/09 03:27:39;;;;;;;0.60;0.60;;;16.80;67.70;;;;;;4999923;28;20506;-62
2022/06/09 03:30:06;;;;;;;1.13;0.40;;;16.80;67.60;;;;;;5055341;28;20094;-62
2022/06/09 03:32:32;;;;;;;0.50;0.50;;;16.70;67.40;;;;;;5049009;28;20038;-62
2022/06/09 03:34:58;;;;;;;0.40;0.40;;;16.70;67.40;;;;;;5050870;28;20051;-62
2022/06/09 03:37:24;;;;;;;0.30;0.30;;;16.70;67.40;;;;;;5054482;28;20035;-62
2022/06/09 03:39:50;;;;;;;1.38;0.40;;;16.70;67.20;;;;;;5054019;28;20048;-62
2022/06/09 03:42:15;;;;;;;0.52;0.30;;;16.70;67.20;;;;;;5057414;28;20033;-62
2022/06/09 03:44:41;;;;;;;0.35;0.35;;;16.70;67.30;;;;;;5054741;28;20078;-62
2022/06/09 03:47:08;;;;;;;0.60;0.40;;;16.70;67.10;;;;;;5059561;28;20108;-61
2022/06/09 03:49:34;;;;;;;0.30;0.30;;;16.60;67.60;;;;;;5054750;28;20029;-62
2022/06/09 03:52:00;;;;;;;0.70;0.30;;;16.60;67.30;;;;;;5051764;28;20029;-62
2022/06/09 03:54:25;;;;;;;1.85;0.47;;;16.60;68.00;;;;;;5045728;28;20029;-62
2022/06/09 03:56:51;;;;;;;0.55;0.38;;;16.60;67.40;;;;;;5052637;28;20435;-63
2022/06/09 03:59:17;;;;;;;0.95;0.50;;;16.60;67.30;;;;;;5043540;28;20028;-62
2022/06/09 04:01:43;;;;;;;2.60;0.57;;;16.60;67.50;;;;;;5041354;28;20097;-62
2022/06/09 04:04:09;;;;;;;0.77;0.40;;;16.60;67.50;;;;;;5042251;28;20028;-61
2022/06/09 04:06:36;;;;;;;5.25;0.40;;;16.50;67.50;;;;;;5040240;28;20051;-63
2022/06/09 04:09:02;;;;;;;1.00;0.55;;;16.50;67.40;;;;;;5042188;28;20103;-61
2022/06/09 04:11:28;;;;;;;8.77;0.50;;;16.50;67.60;;;;;;5047231;28;20067;-62
2022/06/09 04:13:54;;;;;;;0.43;0.40;;;16.50;68.40;;;;;;5044203;28;20583;-63
2022/06/09 04:16:32;;;;;;;0.47;0.40;;;16.50;67.80;;;;;;5042220;28;20381;-62
2022/06/09 04:19:00;;;;;;;1.70;0.60;;;16.50;68.20;;;;;;5046109;28;20108;-61
2022/06/09 04:21:30;;;;;;;2.33;0.52;;;16.50;68.00;;;;;;5043432;28;20596;-62
2022/06/09 04:23:56;;;;;;;0.60;0.50;;;16.60;68.10;;;;;;5039253;28;20043;-62
2022/06/09 04:26:28;;;;;;;0.80;0.60;;;16.60;68.20;;;;;;5042926;28;20037;-61
2022/06/09 04:28:55;;;;;;;1.17;0.50;;;16.70;67.90;;;;;;5041534;28;20876;-62
2022/06/09 04:31:21;;;;;;;0.63;0.50;;;16.60;67.90;;;;;;5038392;28;20044;-62
2022/06/09 04:33:48;;;;;;;0.88;0.60;;;16.60;67.80;;;;;;5036597;28;20033;-62
2022/06/09 04:36:16;;;;;;;2.22;0.45;;;16.60;67.80;;;;;;5042541;28;20060;-64
2022/06/09 04:38:42;;;;;;;3.03;0.40;;;16.60;68.00;;;;;;5028104;28;20026;-61
2022/06/09 04:41:11;;;;;;;0.82;0.60;;;16.60;68.00;;;;;;5038781;28;20517;-61
2022/06/09 04:43:43;;;;;;;0.70;0.43;;;16.60;68.00;;;;;;5041073;28;20078;-62
2022/06/09 04:46:11;;;;;;;1.75;0.50;;;16.60;68.10;;;;;;5038653;28;20088;-62
2022/06/09 04:48:37;;;;;;;1.17;0.60;;;16.70;67.80;;;;;;5041858;28;20109;-63
2022/06/09 04:51:08;;;;;;;1.08;0.47;;;16.70;67.80;;;;;;5039686;28;20048;-64
2022/06/09 04:53:35;;;;;;;1.40;0.55;;;16.60;67.60;;;;;;5039490;28;20507;-62
2022/06/09 04:56:00;;;;;;;1.77;0.50;;;16.60;67.40;;;;;;5039736;28;20098;-62
2022/06/09 04:58:26;;;;;;;1.63;0.60;;;16.60;67.40;;;;;;5032077;28;20017;-62
2022/06/09 05:00:52;;;;;;;1.70;0.85;;;16.60;67.40;;;;;;5044337;28;20063;-62
2022/06/09 05:03:19;;;;;;;1.48;0.52;;;16.60;67.60;;;;;;5038815;28;20033;-63
2022/06/09 05:05:47;;;;;;;1.77;0.50;;;16.60;67.60;;;;;;5040058;28;20032;-62
2022/06/09 05:08:13;;;;;;;2.63;0.50;;;16.60;67.70;;;;;;5043029;28;20155;-63
2022/06/09 05:10:41;;;;;;;0.75;0.40;;;16.50;67.60;;;;;;5040701;28;20021;-62
2022/06/09 05:13:07;;;;;;;0.95;0.57;;;16.50;67.80;;;;;;5041950;28;20025;-62
2022/06/09 05:15:37;;;;;;;3.10;0.60;;;16.50;68.00;;;;;;5043853;28;20031;-62
2022/06/09 05:18:04;;;;;;;1.17;0.63;;;16.60;68.20;;;;;;5041514;28;20025;-62
2022/06/09 05:20:30;;;;;;;1.42;0.73;;;16.60;67.90;;;;;;5049891;28;20067;-64
2022/06/09 05:22:56;;;;;;;1.13;0.60;;;16.60;68.10;;;;;;5050156;28;20059;-63
2022/06/09 05:25:23;;;;;;;1.75;0.90;;;16.70;68.00;;;;;;5051686;28;20029;-62
2022/06/09 05:27:48;;;;;;;1.15;0.65;;;16.70;68.00;;;;;;5057754;28;20033;-62
2022/06/09 05:30:21;;;;;;;1.33;0.77;;;16.70;68.20;;;;;;5049358;28;20103;-62
2022/06/09 05:32:48;;;;;;;3.78;0.77;;;16.80;68.20;;;;;;5035470;28;20036;-62
2022/06/09 05:35:15;;;;;;;1.70;0.88;;;16.80;67.90;;;;;;5055116;28;20049;-62
2022/06/09 05:46:00;;;;;;;2.85;1.02;;;17.10;68.10;;;;;;5055666;28;20055;-62
2022/06/09 05:48:26;;;;;;;4.50;1.10;;;17.20;68.00;;;;;;5053111;28;20038;-62
2022/06/09 05:50:52;;;;;;;2.33;1.00;;;17.30;67.90;;;;;;5052051;28;20043;-62
2022/06/09 05:53:18;;;;;;;2.03;0.90;;;17.40;67.80;;;;;;5051534;28;20055;-62
2022/06/09 05:55:44;;;;;;;3.38;1.05;;;17.50;67.80;;;;;;5050531;28;20052;-62
2022/06/09 05:58:10;;;;;;;5.97;1.05;;;17.60;67.40;;;;;;5057224;28;20037;-62
2022/06/09 06:00:37;;;;;;;2.75;1.05;;;17.70;66.80;;;;;;5048052;28;20075;-62
2022/06/09 06:03:03;;;;;;;3.72;1.17;;;17.70;67.30;;;;;;5051437;28;20056;-62
2022/06/09 06:08:13;;;;;;;2.85;0.82;;;17.80;66.80;;;;;;5048943;28;20052;-63
2022/06/09 06:10:38;;;;;;;6.72;1.00;;;17.90;66.10;;;;;;5051113;28;20025;-62
2022/06/09 06:13:04;;;;;;;2.30;0.98;;;17.90;66.10;;;;;;5053102;28;20035;-63
2022/06/09 06:15:30;;;;;;;3.28;1.20;;;17.90;65.80;;;;;;5051440;28;20055;-63
2022/06/09 06:17:56;;;;;;;3.40;1.05;;;17.90;65.50;;;;;;5057425;28;20096;-63
2022/06/09 06:20:22;;;;;;;3.63;1.02;;;17.90;65.50;;;;;;5049325;28;20033;-63
2022/06/09 06:22:48;;;;;;;5.90;0.90;;;18.00;65.60;;;;;;5051111;28;20036;-63
2022/06/09 06:25:14;;;;;;;3.95;1.33;;;18.00;65.60;;;;;;5053047;28;20405;-62
2022/06/09 06:27:40;;;;;;;3.30;1.02;;;18.10;65.90;;;;;;5046676;28;20024;-62
2022/06/09 06:30:06;;;;;;;2.92;1.10;;;18.30;66.10;;;;;;5052309;28;20028;-63
2022/06/09 06:32:32;;;;;;;2.67;1.10;;;18.50;66.00;;;;;;5054306;28;20024;-62
2022/06/09 06:34:58;;;;;;;2.47;0.90;;;18.60;65.20;;;;;;5051453;28;20069;-62
2022/06/09 06:37:24;;;;;;;3.95;1.30;;;18.80;64.10;;;;;;5053241;28;20029;-62
2022/06/09 06:39:50;;;;;;;4.55;1.30;;;18.80;63.40;;;;;;5047809;28;20421;-63
2022/06/09 06:42:16;;;;;;;5.43;1.40;;;18.80;62.90;;;;;;5053718;28;20032;-62
2022/06/09 06:44:41;;;;;;;4.15;1.30;;;18.80;63.40;;;;;;5054596;28;20035;-64
2022/06/09 06:47:07;;;;;;;2.20;1.20;;;18.60;63.20;;;;;;5053368;28;20025;-63
2022/06/09 06:49:33;;;;;;;7.07;1.33;;;18.50;63.70;;;;;;5050990;28;20091;-63
2022/06/09 06:51:58;;;;;;;4.57;1.33;;;18.40;63.70;;;;;;5051386;28;20159;-63
2022/06/09 06:54:24;;;;;;;5.05;1.08;;;18.30;64.00;;;;;;5049899;28;20112;-63
2022/06/09 06:56:50;;;;;;;1.83;1.00;;;18.20;64.20;;;;;;5047412;28;20067;-63
2022/06/09 06:59:15;;;;;;;2.05;0.85;;;18.20;64.60;;;;;;5053640;28;20033;-63
2022/06/09 07:01:41;;;;;;;5.10;0.98;;;18.10;64.40;;;;;;5054907;28;20052;-63
2022/06/09 07:04:06;;;;;;;2.92;1.10;;;18.10;64.80;;;;;;5051116;28;20112;-63
2022/06/09 07:06:32;;;;;;;5.22;1.08;;;18.20;65.40;;;;;;5056213;28;20041;-63
2022/06/09 07:08:58;;;;;;;7.63;1.20;;;18.30;65.10;;;;;;5055243;28;20385;-63
2022/06/09 07:11:23;;;;;;;3.45;1.00;;;18.30;64.30;;;;;;5059403;28;20025;-62
2022/06/09 07:13:49;;;;;;;2.65;0.95;;;18.30;63.30;;;;;;5052178;28;20034;-63
2022/06/09 07:16:15;;;;;;;3.97;0.80;;;18.30;63.50;;;;;;5058416;28;20025;-62
2022/06/09 07:18:41;;;;;;;3.42;1.00;;;18.30;63.30;;;;;;5041960;28;20032;-62
2022/06/09 07:21:07;;;;;;;8.10;1.00;;;18.40;63.40;;;;;;5057661;28;20025;-63
2022/06/09 07:23:34;;;;;;;9.05;1.05;;;18.40;63.00;;;;;;5057973;28;20037;-63
2022/06/09 07:26:01;;;;;;;5.82;0.95;;;18.40;62.90;;;;;;5036311;28;20101;-62
2022/06/09 07:28:27;;;;;;;4.90;0.90;;;18.50;63.50;;;;;;5053667;28;20074;-62
2022/06/09 07:30:56;;;;;;;4.45;1.13;;;18.60;63.20;;;;;;5051962;28;20036;-63
2022/06/09 07:33:24;;;;;;;3.13;0.80;;;18.70;62.90;;;;;;5051271;28;20055;-63
2022/06/09 07:35:52;;;;;;;2.13;0.70;;;18.80;63.00;;;;;;5051411;28;20105;-62
2022/06/09 07:38:18;;;;;;;2.95;0.80;;;18.90;62.10;;;;;;5050355;28;20028;-63
2022/06/09 07:40:45;;;;;;;1.48;0.70;;;19.00;62.20;;;;;;5049710;28;20500;-64
2022/06/09 07:43:11;;;;;;;4.72;0.80;;;19.00;61.80;;;;;;5052216;28;20040;-63
2022/06/09 07:45:38;;;;;;;3.25;0.70;;;19.10;61.80;;;;;;5053824;28;20097;-64
2022/06/09 07:48:04;;;;;;;2.33;0.82;;;19.20;61.50;;;;;;5054956;28;20013;-63
2022/06/09 07:50:31;;;;;;;2.92;0.80;;;19.30;61.30;;;;;;5054964;28;20416;-64
2022/06/09 07:52:58;;;;;;;3.92;0.90;;;19.40;60.00;;;;;;5050253;28;20029;-63
2022/06/09 07:55:24;;;;;;;2.38;0.73;;;19.50;60.30;;;;;;5044554;28;20396;-64
2022/06/09 07:57:51;;;;;;;2.50;0.60;;;19.60;59.80;;;;;;5057175;28;20040;-62
2022/06/09 08:00:17;;;;;;;1.52;0.60;;;19.70;59.10;;;;;;5055860;28;20044;-63
2022/06/09 08:02:43;;;;;;;4.43;0.80;;;19.80;59.20;;;;;;5050627;28;20559;-63
2022/06/09 08:05:10;;;;;;;3.20;1.02;;;19.90;58.70;;;;;;5052981;28;20624;-63
2022/06/09 08:07:35;;;;;;;2.58;0.82;;;20.00;58.80;;;;;;5052143;28;20086;-63
2022/06/09 08:10:03;;;;;;;2.13;0.70;;;20.10;58.60;;;;;;5048603;28;20048;-63
2022/06/09 08:12:28;;;;;;;2.72;0.80;;;20.20;58.30;;;;;;5046649;28;20025;-63
2022/06/09 08:14:54;;;;;;;2.83;0.80;;;20.20;56.80;;;;;;5052200;28;20060;-63
2022/06/09 08:17:20;;;;;;;3.75;0.80;;;20.20;56.90;;;;;;5048210;28;20033;-63
2022/06/09 08:19:47;;;;;;;4.63;0.80;;;20.20;56.70;;;;;;5053329;28;20029;-64
2022/06/09 08:22:14;;;;;;;2.90;0.73;;;20.10;57.10;;;;;;5050402;28;20025;-62
2022/06/09 08:24:39;;;;;;;2.72;1.00;;;20.10;57.20;;;;;;5050892;28;20086;-63
2022/06/09 08:27:05;;;;;;;4.10;0.82;;;20.20;57.20;;;;;;4952245;28;20037;-62
2022/06/09 08:29:32;;;;;;;3.38;0.68;;;20.10;56.70;;;;;;5051591;28;20049;-62
2022/06/09 08:31:58;;;;;;;1.77;0.60;;;20.20;56.70;;;;;;5053542;28;20055;-64
2022/06/09 08:34:24;;;;;;;1.92;0.70;;;20.20;57.30;;;;;;5034891;28;20084;-63
2022/06/09 08:36:50;;;;;;;2.03;0.70;;;20.30;57.40;;;;;;5032379;28;20030;-63
2022/06/09 08:39:16;;;;;;;3.90;1.02;;;20.40;57.10;;;;;;5036800;28;20025;-62
2022/06/09 08:41:47;;;;;;;2.80;0.77;;;20.50;56.30;;;;;;5037012;28;20036;-62
2022/06/09 08:44:36;;;;;;;3.95;0.82;;;20.50;55.20;;;;;;5033581;28;20033;-63
2022/06/09 08:47:34;;;;;;;3.10;0.80;;;20.40;54.70;;;;;;5032556;28;20026;-63
2022/06/09 08:50:05;;;;;;;3.67;0.77;;;20.30;54.70;;;;;;4974872;28;20597;-62
2022/06/09 08:52:41;;;;;;;3.30;0.77;;;20.20;54.70;;;;;;4970540;28;20138;-63
2022/06/09 08:55:45;;;;;;;3.25;0.80;;;20.10;55.00;;;;;;4968130;28;20030;-62
2022/06/09 08:58:30;;;;;;;3.22;0.70;;;20.00;55.20;;;;;;4969033;28;20031;-63
2022/06/09 09:01:12;;;;;;;3.03;0.70;;;19.90;55.20;;;;;;4967350;28;20047;-63
2022/06/09 09:03:48;;;;;;;4.82;0.70;;;19.90;55.60;;;;;;4978867;28;20026;-63
2022/06/09 09:06:41;;;;;;;1.27;0.52;;;19.80;55.60;;;;;;4975117;28;20066;-63
2022/06/09 09:09:22;;;;;;;1.90;0.68;;;19.80;56.30;;;;;;4973986;28;20031;-63
2022/06/09 09:12:17;;;;;;;3.35;0.75;;;19.90;56.80;;;;;;4969600;28;20042;-63
2022/06/09 09:15:07;;;;;;;3.35;0.93;;;20.10;57.30;;;;;;4966392;28;20089;-63
2022/06/09 09:17:42;;;;;;;7.28;1.15;;;20.40;56.60;;;;;;4974644;28;20031;-64
2022/06/09 09:20:14;;;;;;;1.75;0.60;;;20.60;54.90;;;;;;4976650;28;20138;-63
2022/06/09 09:23:00;;;;;;;3.65;1.08;;;20.70;54.50;;;;;;4970419;28;20030;-63
2022/06/09 09:25:52;;;;;;;6.28;0.82;;;20.60;54.20;;;;;;4992826;28;20046;-64
2022/06/09 09:28:21;;;;;;;8.27;1.10;;;20.50;53.70;;;;;;5029245;28;20025;-63
2022/06/09 09:30:59;;;;;;;4.03;1.10;;;20.40;54.70;;;;;;5037132;28;20054;-63
2022/06/09 09:33:25;;;;;;;4.03;0.80;;;20.40;55.20;;;;;;5028576;28;20096;-63
2022/06/09 09:36:04;;;;;;;2.45;0.98;;;20.40;55.60;;;;;;5049771;28;20049;-63
2022/06/09 09:38:39;;;;;;;1.98;0.80;;;20.50;55.40;;;;;;5060451;28;20040;-63
2022/06/09 09:41:05;;;;;;;8.68;1.02;;;20.60;55.30;;;;;;5057429;28;20021;-63
2022/06/09 09:43:39;;;;;;;4.53;1.35;;;20.70;55.10;;;;;;5057582;28;20028;-63
2022/06/09 09:46:20;;;;;;;3.63;0.68;;;20.80;53.90;;;;;;5050405;28;20049;-63
2022/06/09 09:48:47;;;;;;;3.38;0.93;;;20.80;52.80;;;;;;5050989;28;20063;-63
2022/06/09 09:51:13;;;;;;;3.42;0.90;;;20.90;53.60;;;;;;5057090;28;20139;-63
2022/06/09 09:53:55;;;;;;;3.78;0.90;;;20.80;53.30;;;;;;5054947;28;20029;-62
2022/06/09 09:56:31;;;;;;;3.83;1.05;;;20.80;52.30;;;;;;5050592;28;20031;-61
2022/06/09 09:58:59;;;;;;;7.20;1.20;;;20.70;53.10;;;;;;5038401;28;20464;-62
2022/06/09 10:01:29;;;;;;;6.15;1.30;;;20.70;53.10;;;;;;5054410;28;20429;-62
2022/06/09 10:10:10;;;;;;;4.85;0.80;;;20.30;53.00;;;;;;5055809;28;20848;-62
2022/06/09 10:12:37;;;;;;;4.63;1.00;;;20.10;53.60;;;;;;5050544;28;20024;-62
2022/06/09 10:15:05;;;;;;;7.80;1.30;;;20.00;54.00;;;;;;5049892;28;20199;-64
2022/06/09 10:17:44;;;;;;;2.92;0.82;;;19.90;54.30;;;;;;5038320;28;20065;-62
2022/06/09 10:20:36;;;;;;;5.65;0.85;;;19.90;54.60;;;;;;5052984;28;20045;-62
2022/06/09 10:23:13;;;;;;;3.83;0.80;;;20.00;54.60;;;;;;5049087;28;20056;-62
2022/06/09 10:26:15;;;;;;;4.00;1.10;;;20.20;55.40;;;;;;5001232;28;20640;-62
2022/06/09 10:28:50;;;;;;;6.93;1.10;;;20.40;55.10;;;;;;5045896;28;20018;-63
2022/06/09 10:31:18;;;;;;;2.92;0.98;;;20.60;54.20;;;;;;5056637;28;20025;-63
2022/06/09 10:33:57;;;;;;;4.55;0.98;;;20.80;54.10;;;;;;5057257;28;20028;-62
2022/06/09 10:36:32;;;;;;;4.18;1.00;;;20.90;53.60;;;;;;5056908;28;20397;-63
2022/06/09 10:39:16;;;;;;;3.08;0.90;;;21.10;52.40;;;;;;5049857;28;20025;-63
2022/06/09 10:41:53;;;;;;;2.88;0.90;;;21.20;51.50;;;;;;5054767;28;20045;-62
2022/06/09 10:44:49;;;;;;;2.10;0.70;;;21.30;52.60;;;;;;5055371;28;20032;-64
2022/06/09 10:56:34;;;;;;;2.05;0.80;;;21.90;48.10;;;;;;4977917;28;20141;-62
2022/06/09 10:59:07;;;;;;;2.42;0.75;;;21.80;49.10;;;;;;4977609;28;20063;-62
2022/06/09 11:01:34;;;;;;;1.92;0.60;;;21.80;49.20;;;;;;4978614;28;20066;-62
2022/06/09 11:04:03;;;;;;;6.03;1.10;;;21.70;49.10;;;;;;4979647;28;20155;-62
2022/06/09 11:06:53;;;;;;;9.23;1.15;;;21.60;48.70;;;;;;4973953;28;20050;-62
2022/06/09 11:09:49;;;;;;;2.50;0.80;;;21.50;49.00;;;;;;4963948;28;21129;-62
2022/06/09 11:12:52;;;;;;;7.13;0.88;;;21.50;50.00;;;;;;4971692;28;20065;-63
2022/06/09 11:15:34;;;;;;;4.18;0.77;;;21.50;49.80;;;;;;4978199;28;20439;-62
2022/06/09 11:18:21;;;;;;;3.65;0.80;;;21.50;50.80;;;;;;4974445;28;20635;-62
2022/06/09 11:21:05;;;;;;;5.53;1.50;;;21.70;50.60;;;;;;4979582;28;20038;-63
2022/06/09 11:23:37;;;;;;;3.30;0.80;;;21.80;49.80;;;;;;4976326;28;20074;-63
2022/06/09 11:26:23;;;;;;;2.45;0.90;;;21.90;49.00;;;;;;4975314;28;20065;-62
2022/06/09 11:29:22;;;;;;;2.58;0.70;;;21.90;48.80;;;;;;4971712;28;20031;-63
2022/06/09 11:32:02;;;;;;;4.63;0.82;;;22.00;48.60;;;;;;4976198;28;20407;-64
2022/06/09 11:34:46;;;;;;;2.42;0.75;;;22.10;48.70;;;;;;5055261;28;20068;-62
2022/06/09 11:37:36;;;;;;;1.60;0.70;;;22.20;48.70;;;;;;5052976;28;20041;-63
2022/06/09 11:40:38;;;;;;;2.58;0.70;;;22.30;48.50;;;;;;5048063;28;20482;-63
2022/06/09 11:43:12;;;;;;;1.33;0.60;;;22.30;47.10;;;;;;5031735;28;20038;-62
2022/06/09 11:45:46;;;;;;;3.72;0.85;;;22.40;47.70;;;;;;5052315;28;20029;-62
2022/06/09 11:48:16;;;;;;;;;;;22.40;46.80;;;;;;5055051;28;20311;-63
2022/06/09 11:50:44;;;;;;;1.70;0.70;;;22.50;47.90;;;;;;5056235;28;19913;-63
2022/06/09 11:53:20;;;;;;;4.55;0.55;;;22.60;48.10;;;;;;5054190;28;20021;-63
2022/06/09 11:55:59;;;;;;;1.10;0.55;;;22.70;46.80;;;;;;5054941;28;20102;-63
2022/06/09 11:58:37;;;;;;;2.13;0.60;;;22.80;47.10;;;;;;5053757;28;20064;-63
2022/06/09 12:01:31;;;;;;;2.92;0.80;;;22.90;46.10;;;;;;5053991;28;20029;-63
2022/06/09 12:04:35;;;;;;;2.27;0.70;;;23.00;45.20;;;;;;5050031;28;20029;-63
2022/06/09 12:07:10;;;;;;;1.80;0.68;;;23.10;45.80;;;;;;5058483;28;20041;-63
2022/06/09 12:09:44;;;;;;;2.35;0.70;;;23.20;46.60;;;;;;5057669;28;20021;-64
2022/06/09 12:12:37;;;;;;;4.90;0.80;;;23.40;46.40;;;;;;5040139;28;20057;-63
2022/06/09 12:15:12;;;;;;;5.63;0.85;;;23.50;47.10;;;;;;5056782;28;20025;-63
2022/06/09 12:18:02;;;;;;;3.22;0.80;;;23.80;46.20;;;;;;5054381;28;20039;-63
2022/06/09 12:20:34;;;;;;;1.92;0.57;;;24.00;46.50;;;;;;5044268;28;20041;-63
2022/06/09 12:23:28;;;;;;;2.33;0.65;;;24.20;42.00;;;;;;5053167;28;20496;-63
2022/06/09 12:26:10;;;;;;;3.83;0.85;;;24.40;42.50;;;;;;4981525;28;20092;-63
2022/06/09 12:28:54;;;;;;;1.42;0.50;;;24.40;42.40;;;;;;5037027;28;20037;-63
2022/06/09 12:31:26;;;;;;;1.50;0.50;;;24.30;41.80;;;;;;5048968;28;20049;-63
2022/06/09 12:34:00;;;;;;;1.48;0.50;;;24.30;42.20;;;;;;5058343;28;20040;-63
2022/06/09 12:36:50;;;;;;;1.88;0.70;;;24.40;43.10;;;;;;5058391;28;20162;-64
2022/06/09 12:39:29;;;;;;;3.05;0.60;;;24.50;42.60;;;;;;5053393;28;20055;-63
2022/06/09 12:41:57;;;;;;;3.90;0.68;;;24.60;41.40;;;;;;5051089;28;20414;-62
2022/06/09 12:44:23;;;;;;;2.20;0.80;;;24.70;42.40;;;;;;5051253;28;20028;-63
2022/06/09 12:47:13;;;;;;;2.33;0.77;;;24.70;42.00;;;;;;5053560;28;20099;-64
2022/06/09 12:49:42;;;;;;;2.72;0.80;;;24.70;42.10;;;;;;5056219;28;20119;-63
2022/06/09 12:52:23;;;;;;;3.33;0.82;;;24.60;42.40;;;;;;5061015;28;20060;-63
2022/06/09 12:54:56;;;;;;;3.45;0.80;;;24.50;40.00;;;;;;5059038;28;20083;-64
2022/06/09 12:57:28;;;;;;;2.20;0.73;;;24.30;40.90;;;;;;5049078;28;20504;-63
2022/06/09 13:00:00;;;;;;;2.95;0.90;;;24.20;41.00;;;;;;5051035;28;20561;-62
2022/06/09 13:02:29;;;;;;;4.30;0.68;;;23.90;41.00;;;;;;5055696;28;20028;-62
2022/06/09 13:04:59;;;;;;;3.85;0.77;;;23.70;42.00;;;;;;5051936;28;20033;-63
2022/06/09 13:07:37;;;;;;;3.58;1.00;;;23.50;41.90;;;;;;5061113;28;20181;-63
2022/06/09 13:10:22;;;;;;;4.07;0.80;;;23.20;41.90;;;;;;5060529;28;20020;-62
2022/06/09 13:12:51;;;;;;;;;;;23.00;42.30;;;;;;5053957;28;20045;-63
2022/06/09 13:15:47;;;;;;;9.35;0.85;;;22.90;43.70;;;;;;5058277;28;19913;-63
2022/06/09 13:18:38;;;;;;;3.42;1.00;;;22.80;43.70;;;;;;5046956;28;20021;-63
2022/06/09 13:21:24;;;;;;;5.18;0.80;;;22.60;44.50;;;;;;5060150;28;20100;-64
2022/06/09 13:23:54;;;;;;;2.88;0.70;;;22.60;45.30;;;;;;5049362;28;20473;-62
2022/06/09 13:26:45;;;;;;;3.35;1.00;;;22.50;45.50;;;;;;5058452;28;20095;-63
2022/06/09 13:29:25;;;;;;;3.70;0.98;;;22.50;45.40;;;;;;5052428;28;20095;-63
2022/06/09 13:32:08;;;;;;;3.03;0.75;;;22.50;45.20;;;;;;5051501;28;20039;-63
2022/06/09 13:34:36;;;;;;;1.20;0.50;;;22.60;45.10;;;;;;5056280;28;20049;-63
2022/06/09 13:37:14;;;;;;;2.22;0.80;;;22.60;45.20;;;;;;5057374;28;20567;-63